Llandudno Junction, United Kingdom
Current Conditions -  °F | °C
As of 1:50 AM on Saturday 22 Nov 2014 (Local Time) from EGOV Reporting Station
Rain Showers Rain Showers  
Wind Chill: 54°   Ceiling: 3200
Heat Index: 54°   Visibility: 2.3mi
Dew Point: 52°   Wind: 26mph
Humidity: 94%   Direction: 160°SSE
Pressure: 29.65"   Gusts: NA
Location:  53.28°N, 3.8°W
Report Text: EGOV 220150Z AUTO 16023KT 3700 +SHRA FEW016/// SCT024/// BKN032/// 12/11 Q1004
Loading
Personal Weather Stations






























Interactive Weather Map New forecast layout! Learn more

10-Day Weather Forecast

Advertisements
Track Severe Weather on mobile